Anvil Green, United Kingdom
Current Conditions -  °F | °C
As of 2:20 PM on Saturday 20 Dec 2014 (Local Time) from EGMD Reporting Station
Scattered Clouds Scattered Clouds  
Wind Chill: 50°   Ceiling: Unl
Heat Index: 50°   Visibility: 6mi
Dew Point: 41°   Wind: 20mph
Humidity: 71%   Direction: 280°W
Pressure: 30.33"   Gusts: NA
Location:  51.26°N, 1.11°E
Report Text: EGMD 201420Z 28017KT 9999 SCT037 10/05 Q1027
Loading
Personal Weather Stations






























Interactive Weather Map New forecast layout! Learn more

10-Day Weather Forecast

Advertisements
Track Severe Weather on mobile